Charlestown, Massachusetts
Current Conditions -  °F | °C
As of 6:54 PM on Monday 20 Oct 2014 (Local Time) from KBOS Reporting Station
Broken Clouds Broken Clouds  
Wind Chill: 54°   Ceiling: 11000
Heat Index: 54°   Visibility: 10mi
Dew Point: 33°   Wind: 9mph
Humidity: 45%   Direction: 230°SW
Pressure: 29.99"   Gusts: NA
Location:  42.38°N, 71.06°W
Report Text: KBOS 202254Z 23008KT 10SM BKN110 12/01 A2999 RMK AO2 SLP155 T01220006
Loading
Personal Weather Stations






























Interactive Weather Map
Tropical Storm Tracking
New forecast layout! Learn more

10-Day Weather Forecast

Advertisements
Track Severe Weather on mobile